createdAt,value
2023-01-06T00:01:43.564Z,31.40
2023-01-06T00:04:11.567Z,36.90
2023-01-06T00:06:39.639Z,40.58
2023-01-06T00:09:07.564Z,35.55
2023-01-06T00:11:35.679Z,40.85
2023-01-06T00:14:04.229Z,40.35
2023-01-06T00:16:33.482Z,34.78
2023-01-06T00:19:02.041Z,43.78
2023-01-06T00:21:30.797Z,38.80
2023-01-06T00:23:58.807Z,38.75
2023-01-06T00:26:26.771Z,47.47
2023-01-06T00:28:55.765Z,40.92
2023-01-06T00:31:24.032Z,44.92
2023-01-06T00:33:53.442Z,48.80
2023-01-06T00:36:22.410Z,41.47
2023-01-06T00:38:51.034Z,39.92
2023-01-06T00:41:37.419Z,41.83
2023-01-06T00:44:05.941Z,37.80
2023-01-06T00:46:34.462Z,33.53
2023-01-06T00:49:06.206Z,38.28
2023-01-06T00:51:39.275Z,30.50
2023-01-06T00:54:08.289Z,37.85
2023-01-06T00:56:38.196Z,34.55
2023-01-06T00:59:06.845Z,38.50
2023-01-06T01:01:35.391Z,29.70
2023-01-06T01:04:05.887Z,31.35
2023-01-06T01:06:36.989Z,30.33
2023-01-06T01:09:07.397Z,30.30
2023-01-06T01:11:53.206Z,29.33
2023-01-06T01:14:22.004Z,27.42
2023-01-06T01:16:50.064Z,30.85
2023-01-06T01:19:20.250Z,27.23
2023-01-06T01:21:48.893Z,28.08
2023-01-06T01:24:19.660Z,25.83
2023-01-06T01:26:48.152Z,17.27
2023-01-06T01:29:19.005Z,20.63
2023-01-06T01:31:47.569Z,25.98
2023-01-06T01:34:17.388Z,15.35
2023-01-06T01:36:48.464Z,16.80
2023-01-06T01:39:18.382Z,21.58
2023-01-06T01:41:47.218Z,29.92
2023-01-06T01:44:52.395Z,10.90
2023-01-06T01:47:26.110Z,25.60
2023-01-06T01:49:58.076Z,21.60
2023-01-06T01:52:28.122Z,25.20
2023-01-06T01:54:56.806Z,24.27
2023-01-06T01:57:28.799Z,13.20
2023-01-06T01:59:57.121Z,14.98
2023-01-06T02:02:25.538Z,13.07
2023-01-06T02:04:56.115Z,10.55
2023-01-06T02:07:28.236Z,14.68
2023-01-06T02:10:03.689Z,12.43
2023-01-06T02:12:33.899Z,8.75
2023-01-06T02:15:02.037Z,30.55
2023-01-06T02:17:51.750Z,14.27
2023-01-06T02:20:36.663Z,17.70
2023-01-06T02:23:47.687Z,8.90
2023-01-06T02:27:04.305Z,16.05
2023-01-06T02:30:01.825Z,12.65
2023-01-06T02:33:05.564Z,18.55
2023-01-06T02:35:48.501Z,13.70
2023-01-06T02:38:29.513Z,14.70
2023-01-06T02:41:11.314Z,17.77
2023-01-06T02:43:52.123Z,11.20
2023-01-06T02:46:32.645Z,17.20
2023-01-06T02:49:12.356Z,15.82
2023-01-06T02:51:50.410Z,18.52
2023-01-06T02:54:26.555Z,18.10
2023-01-06T02:57:01.371Z,10.98
2023-01-06T02:59:35.356Z,11.20
2023-01-06T03:02:06.020Z,13.25
2023-01-06T03:04:40.370Z,9.73
2023-01-06T03:07:10.637Z,12.50
2023-01-06T03:09:40.450Z,7.00
2023-01-06T03:12:17.150Z,11.88
2023-01-06T03:14:49.844Z,11.70
2023-01-06T03:17:18.551Z,11.93
2023-01-06T03:19:47.887Z,11.95
2023-01-06T03:22:17.685Z,12.77
2023-01-06T03:24:47.428Z,9.30
2023-01-06T03:27:18.936Z,14.73
2023-01-06T03:29:47.316Z,10.65
2023-01-06T03:32:23.788Z,8.82
2023-01-06T03:35:05.509Z,10.88
2023-01-06T03:37:43.007Z,10.52
2023-01-06T03:40:18.503Z,10.45
2023-01-06T03:43:06.853Z,11.57
2023-01-06T03:45:45.745Z,11.73
2023-01-06T03:48:23.390Z,9.00
2023-01-06T03:50:59.042Z,16.00
2023-01-06T03:53:35.113Z,11.05
2023-01-06T03:56:13.955Z,11.77
2023-01-06T03:58:42.910Z,11.80
2023-01-06T04:01:12.569Z,9.55
2023-01-06T04:03:41.133Z,13.18
2023-01-06T04:06:10.496Z,19.27
2023-01-06T04:08:39.592Z,11.75
2023-01-06T04:11:07.481Z,8.65
2023-01-06T04:13:34.401Z,8.88
2023-01-06T04:16:02.429Z,13.95
2023-01-06T04:18:30.950Z,15.90
2023-01-06T04:20:59.319Z,15.68
2023-01-06T04:23:33.038Z,13.65
2023-01-06T04:26:03.358Z,15.38
2023-01-06T04:28:39.294Z,11.98
2023-01-06T04:31:09.160Z,12.95
2023-01-06T04:33:37.461Z,11.18
2023-01-06T04:36:07.845Z,10.45
2023-01-06T04:38:37.708Z,12.35
2023-01-06T04:41:06.045Z,8.45
2023-01-06T04:43:34.801Z,10.32
2023-01-06T04:46:05.421Z,8.63
2023-01-06T04:48:33.320Z,8.43
2023-01-06T04:51:02.867Z,6.95
2023-01-06T04:53:30.760Z,13.07
2023-01-06T04:56:03.582Z,12.18
2023-01-06T04:58:31.644Z,10.50
2023-01-06T05:01:03.141Z,10.38
2023-01-06T05:03:31.408Z,11.10
2023-01-06T05:06:03.118Z,5.55
2023-01-06T05:08:31.707Z,8.68
2023-01-06T05:11:05.241Z,5.43
2023-01-06T05:16:01.851Z,9.50
2023-01-06T05:18:30.092Z,7.00
2023-01-06T05:20:58.002Z,6.50
2023-01-06T05:23:25.936Z,5.45
2023-01-06T05:25:57.206Z,6.40
2023-01-06T05:28:26.728Z,12.02
2023-01-06T05:30:59.569Z,10.95
2023-01-06T05:33:27.471Z,8.85
2023-01-06T05:35:58.935Z,9.25
2023-01-06T05:38:27.023Z,7.63
2023-01-06T05:40:56.816Z,6.60
2023-01-06T05:43:27.278Z,7.95
2023-01-06T05:45:56.834Z,10.48
2023-01-06T05:48:26.649Z,5.93
2023-01-06T05:51:01.349Z,5.47
2023-01-06T05:53:32.187Z,10.43
2023-01-06T05:56:01.814Z,10.93
2023-01-06T05:58:33.626Z,9.07
2023-01-06T06:01:02.127Z,9.43
2023-01-06T06:03:30.483Z,10.43
2023-01-06T06:06:03.768Z,11.32
2023-01-06T06:08:31.940Z,12.15
2023-01-06T06:11:04.113Z,10.52
2023-01-06T06:13:33.669Z,11.80
2023-01-06T06:16:06.693Z,12.48
2023-01-06T06:18:34.774Z,9.95
2023-01-06T06:21:03.260Z,21.80
2023-01-06T06:23:31.824Z,14.38
2023-01-06T06:25:59.874Z,10.60
2023-01-06T06:28:28.111Z,12.20
2023-01-06T06:31:04.063Z,12.23
2023-01-06T06:33:32.089Z,12.80
2023-01-06T06:36:00.350Z,11.10
2023-01-06T06:38:28.670Z,17.83
2023-01-06T06:40:56.600Z,9.63
2023-01-06T06:43:25.579Z,10.88
2023-01-06T06:45:53.629Z,15.98
2023-01-06T06:48:23.259Z,22.17
2023-01-06T06:50:57.745Z,11.75
2023-01-06T06:53:25.704Z,9.95
2023-01-06T06:55:54.047Z,9.32
2023-01-06T06:58:22.117Z,8.93
2023-01-06T07:00:50.274Z,10.05
2023-01-06T07:03:19.783Z,7.50
2023-01-06T07:05:50.395Z,8.50
2023-01-06T07:08:18.685Z,10.25
2023-01-06T07:10:46.670Z,9.35
2023-01-06T07:13:14.773Z,6.10
2023-01-06T07:15:42.865Z,6.53
2023-01-06T07:18:10.984Z,5.78
2023-01-06T07:20:39.756Z,8.05
2023-01-06T07:23:09.128Z,8.13
2023-01-06T07:25:37.398Z,5.22
2023-01-06T07:28:07.097Z,6.82
2023-01-06T07:30:35.553Z,4.72
2023-01-06T07:33:04.314Z,3.45
2023-01-06T07:35:32.601Z,3.33
2023-01-06T07:38:04.563Z,7.43
2023-01-06T07:40:34.321Z,5.22
2023-01-06T07:43:05.652Z,4.20
2023-01-06T07:45:33.958Z,4.88
2023-01-06T07:48:02.573Z,5.78
2023-01-06T07:50:31.554Z,4.55
2023-01-06T07:53:00.372Z,7.88
2023-01-06T07:55:28.780Z,5.88
2023-01-06T07:57:59.709Z,7.80
2023-01-06T08:00:28.249Z,5.15
2023-01-06T08:02:56.877Z,6.35
2023-01-06T08:05:25.028Z,8.02
2023-01-06T08:07:52.985Z,4.15
2023-01-06T08:10:21.295Z,6.53
2023-01-06T08:12:49.346Z,5.82
2023-01-06T08:15:19.182Z,5.65
2023-01-06T08:17:47.422Z,7.10
2023-01-06T08:20:15.549Z,2.97
2023-01-06T08:22:43.671Z,6.82
2023-01-06T08:25:12.116Z,4.18
2023-01-06T08:27:40.328Z,7.55
2023-01-06T08:30:10.099Z,4.55
2023-01-06T08:32:39.464Z,5.45
2023-01-06T08:35:08.484Z,9.15
2023-01-06T08:37:37.313Z,10.52
2023-01-06T08:40:06.757Z,0.55
2023-01-06T08:42:34.963Z,3.17
2023-01-06T08:45:03.234Z,5.43
2023-01-06T08:47:31.334Z,2.47
2023-01-06T08:50:00.870Z,4.05
2023-01-06T08:52:29.044Z,2.47
2023-01-06T08:54:57.139Z,9.38
2023-01-06T08:57:25.264Z,6.00
2023-01-06T08:59:53.275Z,15.30
2023-01-06T09:02:21.443Z,10.30
2023-01-06T09:04:49.715Z,9.80
2023-01-06T09:07:19.267Z,9.05
2023-01-06T09:09:47.405Z,13.45
2023-01-06T09:12:15.751Z,7.53
2023-01-06T09:14:43.804Z,11.23
2023-01-06T09:17:12.352Z,8.25
2023-01-06T09:19:40.518Z,8.73
2023-01-06T09:22:08.770Z,9.68
2023-01-06T09:24:38.336Z,12.80
2023-01-06T09:27:06.522Z,12.88
2023-01-06T09:29:34.913Z,9.15
2023-01-06T09:32:03.466Z,11.90
2023-01-06T09:34:31.695Z,15.60
2023-01-06T09:36:59.728Z,14.25
2023-01-06T09:39:28.121Z,18.27
2023-01-06T09:42:37.837Z,12.38
2023-01-06T09:45:11.511Z,19.60
2023-01-06T09:47:44.445Z,19.95
2023-01-06T09:50:22.923Z,9.95
2023-01-06T09:52:56.770Z,11.32
2023-01-06T09:55:33.489Z,16.52
2023-01-06T09:58:09.469Z,14.77
2023-01-06T10:00:42.395Z,14.48
2023-01-06T10:03:14.541Z,14.95
2023-01-06T10:05:57.949Z,12.13
2023-01-06T10:08:36.165Z,15.23
2023-01-06T10:11:16.042Z,16.63
2023-01-06T10:13:58.544Z,21.83
2023-01-06T10:16:37.225Z,13.23
2023-01-06T10:19:18.213Z,21.02
2023-01-06T10:21:51.143Z,26.73
2023-01-06T10:24:46.087Z,16.58
2023-01-06T10:27:26.974Z,14.32
2023-01-06T10:30:00.324Z,17.45
2023-01-06T10:32:33.093Z,12.23
2023-01-06T10:35:02.018Z,6.53
2023-01-06T10:37:38.891Z,6.05
2023-01-06T10:40:19.346Z,15.43
2023-01-06T10:42:56.605Z,16.13
2023-01-06T10:45:29.184Z,12.38
2023-01-06T10:47:58.259Z,15.47
2023-01-06T10:50:27.170Z,14.70
2023-01-06T10:52:55.700Z,17.02
2023-01-06T10:55:45.223Z,12.02
2023-01-06T10:58:23.069Z,10.98
2023-01-06T11:01:01.459Z,12.73
2023-01-06T11:03:34.484Z,18.38
2023-01-06T11:06:16.724Z,10.77
2023-01-06T11:08:46.255Z,16.17
2023-01-06T11:11:27.840Z,12.23
2023-01-06T11:13:59.889Z,12.68
2023-01-06T11:16:32.522Z,18.48
2023-01-06T11:19:04.563Z,16.57
2023-01-06T11:21:41.319Z,15.35
2023-01-06T11:24:18.957Z,7.50
2023-01-06T11:26:53.082Z,14.32
2023-01-06T11:29:27.292Z,23.02
2023-01-06T11:31:58.398Z,11.25
2023-01-06T11:34:29.978Z,18.77
2023-01-06T11:36:59.032Z,16.40
2023-01-06T11:39:31.049Z,11.00
2023-01-06T11:42:06.501Z,16.08
2023-01-06T11:44:37.777Z,14.43
2023-01-06T11:47:13.513Z,27.13
2023-01-06T11:49:47.306Z,12.07
2023-01-06T11:52:24.683Z,17.83
2023-01-06T11:55:02.704Z,14.68
2023-01-06T11:57:41.090Z,9.98
2023-01-06T12:00:23.784Z,18.02
2023-01-06T12:03:03.331Z,12.82
2023-01-06T12:05:40.080Z,16.70
2023-01-06T12:08:16.797Z,22.63
2023-01-06T12:10:48.837Z,12.10
2023-01-06T12:13:17.068Z,14.90
2023-01-06T12:15:51.860Z,16.00
2023-01-06T12:18:26.077Z,16.80
2023-01-06T12:20:56.768Z,16.83
2023-01-06T12:23:29.572Z,13.45
2023-01-06T12:26:00.790Z,11.63
2023-01-06T12:28:32.438Z,10.52
2023-01-06T12:31:06.548Z,24.55
2023-01-06T12:33:42.186Z,16.50
2023-01-06T12:36:16.814Z,16.58
2023-01-06T12:38:55.002Z,15.13
2023-01-06T12:41:31.558Z,29.58
2023-01-06T12:44:10.914Z,12.95
2023-01-06T12:46:44.032Z,10.45
2023-01-06T12:49:22.402Z,15.95
2023-01-06T12:51:55.592Z,15.52
2023-01-06T12:54:29.045Z,8.15
2023-01-06T12:57:10.753Z,20.10
2023-01-06T12:59:55.231Z,13.32
2023-01-06T13:02:47.247Z,17.40
2023-01-06T13:05:29.226Z,21.70
2023-01-06T13:08:09.174Z,28.65
2023-01-06T13:10:41.521Z,14.25
2023-01-06T13:13:35.452Z,17.23
2023-01-06T13:16:12.106Z,13.02
2023-01-06T13:18:46.437Z,12.23
2023-01-06T13:21:20.461Z,12.75
2023-01-06T13:24:02.670Z,21.55
2023-01-06T13:27:01.026Z,25.63
2023-01-06T13:29:43.027Z,11.60
2023-01-06T13:32:40.297Z,16.70
2023-01-06T13:35:46.726Z,14.95
2023-01-06T13:38:40.901Z,13.63
2023-01-06T13:43:43.013Z,12.10
2023-01-06T13:46:16.097Z,15.80
2023-01-06T13:48:51.750Z,13.30
2023-01-06T13:51:24.347Z,17.75
2023-01-06T13:53:54.824Z,15.23
2023-01-06T13:56:32.484Z,20.73
2023-01-06T13:59:27.938Z,17.92
2023-01-06T14:01:59.919Z,16.27
2023-01-06T14:04:48.757Z,10.77
2023-01-06T14:07:33.209Z,19.88
2023-01-06T14:10:04.288Z,17.77
2023-01-06T14:12:36.058Z,16.58
2023-01-06T14:15:07.452Z,12.23
2023-01-06T14:17:41.685Z,13.48
2023-01-06T14:20:31.693Z,25.17
2023-01-06T14:23:03.019Z,16.58
2023-01-06T14:25:36.333Z,11.95
2023-01-06T14:28:22.923Z,14.30
2023-01-06T14:30:52.426Z,15.70
2023-01-06T14:33:35.237Z,13.00
2023-01-06T14:36:07.879Z,19.90
2023-01-06T14:38:43.746Z,19.80
2023-01-06T14:41:23.047Z,11.55
2023-01-06T14:43:55.541Z,16.83
2023-01-06T14:46:28.153Z,20.67
2023-01-06T14:49:01.465Z,12.43
2023-01-06T14:51:31.486Z,20.50
2023-01-06T14:54:04.473Z,20.15
2023-01-06T14:56:34.588Z,14.07
2023-01-06T14:59:11.035Z,26.95
2023-01-06T15:01:41.810Z,15.80
2023-01-06T15:04:23.806Z,12.45
2023-01-06T15:07:05.786Z,13.50
2023-01-06T15:09:34.584Z,19.48
2023-01-06T15:12:04.214Z,18.23
2023-01-06T15:14:34.441Z,14.30
2023-01-06T15:17:04.831Z,12.93
2023-01-06T15:19:33.333Z,24.23
2023-01-06T15:22:06.744Z,20.30
2023-01-06T15:27:08.843Z,14.73
2023-01-06T15:29:36.934Z,20.70
2023-01-06T15:32:07.876Z,22.88
2023-01-06T15:34:40.807Z,14.40
2023-01-06T15:37:16.169Z,24.67
2023-01-06T15:39:45.108Z,13.80
2023-01-06T15:42:16.430Z,20.85
2023-01-06T15:44:55.406Z,14.73
2023-01-06T15:47:31.168Z,23.10
2023-01-06T15:50:03.244Z,15.10
2023-01-06T15:52:33.720Z,27.13
2023-01-06T15:55:05.375Z,17.25
2023-01-06T15:57:39.932Z,20.85
2023-01-06T16:00:20.113Z,16.38
2023-01-06T16:02:49.432Z,18.23
2023-01-06T16:05:41.233Z,20.20
2023-01-06T16:08:18.984Z,16.33
2023-01-06T16:10:47.218Z,21.58
2023-01-06T16:13:26.684Z,19.90
2023-01-06T16:15:59.122Z,20.88
2023-01-06T16:18:30.563Z,13.48
2023-01-06T16:21:00.272Z,18.52
2023-01-06T16:23:34.166Z,17.27
2023-01-06T16:26:09.368Z,10.68
2023-01-06T16:28:44.065Z,21.13
2023-01-06T16:31:13.910Z,21.40
2023-01-06T16:33:45.856Z,17.33
2023-01-06T16:36:16.573Z,12.70
2023-01-06T16:38:45.537Z,13.82
2023-01-06T16:41:17.826Z,20.38
2023-01-06T16:43:47.637Z,19.02
2023-01-06T16:46:21.828Z,18.23
2023-01-06T16:48:53.042Z,17.98
2023-01-06T16:51:21.155Z,18.88
2023-01-06T16:53:49.816Z,19.20
2023-01-06T16:56:22.052Z,17.50
2023-01-06T16:58:51.780Z,23.10
2023-01-06T17:01:22.250Z,25.13
2023-01-06T17:03:54.630Z,23.17
2023-01-06T17:06:24.761Z,16.17
2023-01-06T17:08:55.580Z,9.77
2023-01-06T17:11:25.861Z,22.42
2023-01-06T17:13:58.320Z,23.83
2023-01-06T17:16:31.001Z,12.32
2023-01-06T17:19:01.260Z,15.03
2023-01-06T17:21:34.098Z,23.23
2023-01-06T17:24:11.594Z,15.00
2023-01-06T17:26:40.414Z,14.93
2023-01-06T17:29:15.295Z,15.20
2023-01-06T17:31:45.658Z,12.07
2023-01-06T17:34:17.111Z,15.65
2023-01-06T17:36:47.196Z,11.80
2023-01-06T17:39:19.547Z,10.48
2023-01-06T17:41:47.778Z,15.65
2023-01-06T17:44:19.173Z,14.20
2023-01-06T17:46:48.028Z,15.32
2023-01-06T17:49:35.043Z,17.35
2023-01-06T17:52:15.615Z,17.55
2023-01-06T17:55:08.508Z,18.85
2023-01-06T17:57:36.471Z,12.40
2023-01-06T18:00:19.343Z,15.13
2023-01-06T18:02:51.527Z,16.42
2023-01-06T18:05:53.536Z,15.77
2023-01-06T18:08:22.819Z,27.50
2023-01-06T18:10:57.113Z,12.68
2023-01-06T18:13:29.374Z,20.05
2023-01-06T18:16:00.569Z,19.08
2023-01-06T18:18:33.960Z,13.93
2023-01-06T18:23:34.651Z,14.30
2023-01-06T18:26:27.743Z,12.15
2023-01-06T18:28:58.795Z,20.92
2023-01-06T18:31:34.480Z,11.93
2023-01-06T18:34:17.542Z,17.52
2023-01-06T18:36:45.672Z,13.77
2023-01-06T18:39:14.389Z,13.88
2023-01-06T18:41:42.526Z,15.68
2023-01-06T18:44:19.927Z,14.93
2023-01-06T18:46:50.719Z,20.90
2023-01-06T18:49:19.369Z,15.65
2023-01-06T18:51:47.588Z,14.52
2023-01-06T18:54:18.927Z,14.52
2023-01-06T18:56:47.253Z,20.77
2023-01-06T18:59:19.931Z,18.42
2023-01-06T19:01:52.507Z,9.20
2023-01-06T19:04:26.314Z,8.30
2023-01-06T19:06:58.129Z,8.90
2023-01-06T19:09:34.615Z,11.23
2023-01-06T19:12:27.018Z,12.10
2023-01-06T19:14:56.067Z,11.68
2023-01-06T19:17:28.805Z,17.95
2023-01-06T19:19:58.259Z,15.60
2023-01-06T19:22:28.504Z,18.08
2023-01-06T19:25:03.822Z,17.38
2023-01-06T19:27:36.311Z,11.93
2023-01-06T19:30:42.962Z,9.70
2023-01-06T19:33:26.128Z,11.68
2023-01-06T19:36:01.727Z,10.98
2023-01-06T19:38:32.112Z,12.90
2023-01-06T19:41:03.469Z,28.13
2023-01-06T19:43:34.281Z,14.43
2023-01-06T19:46:05.048Z,12.23
2023-01-06T19:48:39.664Z,17.23
2023-01-06T19:51:24.348Z,14.15
2023-01-06T19:53:55.677Z,14.50
2023-01-06T19:56:26.247Z,8.25
2023-01-06T19:58:56.140Z,12.38
2023-01-06T20:01:25.209Z,14.55
2023-01-06T20:03:55.569Z,20.45
2023-01-06T20:06:24.547Z,14.60
2023-01-06T20:08:53.633Z,14.45
2023-01-06T20:11:24.566Z,18.38
2023-01-06T20:13:53.228Z,12.07
2023-01-06T20:16:21.281Z,18.40
2023-01-06T20:18:50.623Z,10.10
2023-01-06T20:21:19.969Z,12.73
2023-01-06T20:23:48.303Z,11.93
2023-01-06T20:26:16.426Z,13.73
2023-01-06T20:28:44.584Z,12.98
2023-01-06T20:31:12.723Z,11.23
2023-01-06T20:33:40.896Z,14.40
2023-01-06T20:36:09.433Z,8.30
2023-01-06T20:38:38.774Z,12.50
2023-01-06T20:41:07.285Z,21.52
2023-01-06T20:43:35.460Z,16.20
2023-01-06T20:46:03.731Z,12.10
2023-01-06T20:48:31.836Z,22.10
2023-01-06T20:51:00.300Z,18.35
2023-01-06T20:53:28.823Z,14.45
2023-01-06T20:55:58.717Z,16.17
2023-01-06T20:58:27.505Z,16.80
2023-01-06T21:00:55.876Z,14.55
2023-01-06T21:03:24.117Z,18.17
2023-01-06T21:05:52.295Z,15.50
2023-01-06T21:08:20.423Z,12.57
2023-01-06T21:10:48.752Z,25.02
2023-01-06T21:13:18.305Z,14.00
2023-01-06T21:15:46.378Z,15.75
2023-01-06T21:18:14.345Z,24.45
2023-01-06T21:20:42.351Z,10.73
2023-01-06T21:23:11.746Z,12.57
2023-01-06T21:25:40.320Z,12.35
2023-01-06T21:28:08.363Z,15.63
2023-01-06T21:30:38.033Z,22.88
2023-01-06T21:33:05.914Z,21.08
2023-01-06T21:35:35.385Z,16.13
2023-01-06T21:38:05.265Z,20.33
2023-01-06T21:40:33.347Z,18.98
2023-01-06T21:43:09.531Z,21.85
2023-01-06T21:45:40.806Z,18.38
2023-01-06T21:48:09.586Z,21.42
2023-01-06T21:50:41.006Z,12.35
2023-01-06T21:53:10.384Z,22.85
2023-01-06T21:55:40.501Z,18.15
2023-01-06T21:58:08.437Z,23.90
2023-01-06T22:00:36.544Z,18.75
2023-01-06T22:03:06.407Z,26.23
2023-01-06T22:05:35.486Z,12.88
2023-01-06T22:08:04.023Z,18.92
2023-01-06T22:10:32.130Z,21.05
2023-01-06T22:13:00.612Z,18.60
2023-01-06T22:15:29.675Z,16.55
2023-01-06T22:17:59.887Z,16.27
2023-01-06T22:20:31.704Z,23.83
2023-01-06T22:23:02.296Z,23.38
2023-01-06T22:25:30.712Z,26.80
2023-01-06T22:27:59.764Z,26.05
2023-01-06T22:30:30.476Z,20.17
2023-01-06T22:32:58.566Z,22.52
2023-01-06T22:35:26.542Z,22.10
2023-01-06T22:37:55.847Z,23.10
2023-01-06T22:40:23.828Z,25.08
2023-01-06T22:42:52.053Z,25.73
2023-01-06T22:45:20.149Z,29.52
2023-01-06T22:47:48.230Z,25.23
2023-01-06T22:50:16.587Z,27.80
2023-01-06T22:52:44.537Z,29.08
2023-01-06T22:55:13.843Z,34.22
2023-01-06T22:57:41.724Z,32.88
2023-01-06T23:00:14.923Z,32.85
2023-01-06T23:02:43.816Z,32.60
2023-01-06T23:05:12.264Z,36.90
2023-01-06T23:07:41.857Z,31.17
2023-01-06T23:10:12.633Z,32.20
2023-01-06T23:12:43.208Z,27.25
2023-01-06T23:15:12.060Z,30.58
2023-01-06T23:17:40.154Z,30.23
2023-01-06T23:20:09.118Z,36.25
2023-01-06T23:22:37.282Z,34.28
2023-01-06T23:25:06.165Z,38.33
2023-01-06T23:27:34.058Z,31.85
2023-01-06T23:30:03.539Z,37.25
2023-01-06T23:32:31.530Z,32.22
2023-01-06T23:34:59.429Z,33.70
2023-01-06T23:37:27.280Z,33.72
2023-01-06T23:39:55.234Z,39.13
2023-01-06T23:42:23.146Z,37.03
2023-01-06T23:44:51.179Z,36.38
2023-01-06T23:47:20.378Z,36.80
2023-01-06T23:49:48.923Z,40.00
2023-01-06T23:52:16.827Z,34.65
2023-01-06T23:54:44.759Z,32.83
2023-01-06T23:57:12.651Z,38.92
2023-01-06T23:59:40.627Z,40.25
